sensor_id;sensor_type;location;lat;lon;timestamp;temperature;humidity
254;DHT22;590;48.772;8.846;2022-07-22T00:01:32;19.00;69.90
254;DHT22;590;48.772;8.846;2022-07-22T00:04:00;18.90;68.90
254;DHT22;590;48.772;8.846;2022-07-22T00:06:29;18.80;69.10
254;DHT22;590;48.772;8.846;2022-07-22T00:08:57;18.80;69.20
254;DHT22;590;48.772;8.846;2022-07-22T00:11:25;18.80;69.00
254;DHT22;590;48.772;8.846;2022-07-22T00:13:53;18.70;68.70
254;DHT22;590;48.772;8.846;2022-07-22T00:16:23;18.70;69.20
254;DHT22;590;48.772;8.846;2022-07-22T00:18:51;18.70;69.20
254;DHT22;590;48.772;8.846;2022-07-22T00:21:19;18.60;69.30
254;DHT22;590;48.772;8.846;2022-07-22T00:23:47;18.50;69.60
254;DHT22;590;48.772;8.846;2022-07-22T00:26:16;18.50;70.60
254;DHT22;590;48.772;8.846;2022-07-22T00:28:44;18.40;71.40
254;DHT22;590;48.772;8.846;2022-07-22T00:31:11;18.40;72.30
254;DHT22;590;48.772;8.846;2022-07-22T00:33:41;18.40;72.60
254;DHT22;590;48.772;8.846;2022-07-22T00:36:09;18.30;72.60
254;DHT22;590;48.772;8.846;2022-07-22T00:38:37;18.40;73.20
254;DHT22;590;48.772;8.846;2022-07-22T00:41:05;18.30;73.20
254;DHT22;590;48.772;8.846;2022-07-22T00:43:51;18.40;72.70
254;DHT22;590;48.772;8.846;2022-07-22T00:46:22;18.40;72.70
254;DHT22;590;48.772;8.846;2022-07-22T00:48:51;18.30;72.60
254;DHT22;590;48.772;8.846;2022-07-22T00:51:21;18.30;73.00
254;DHT22;590;48.772;8.846;2022-07-22T00:53:50;18.30;74.00
254;DHT22;590;48.772;8.846;2022-07-22T00:56:19;18.30;74.60
254;DHT22;590;48.772;8.846;2022-07-22T00:58:48;18.30;74.00
254;DHT22;590;48.772;8.846;2022-07-22T01:01:17;18.30;73.10
254;DHT22;590;48.772;8.846;2022-07-22T01:03:45;18.20;73.60
254;DHT22;590;48.772;8.846;2022-07-22T01:06:18;18.10;73.50
254;DHT22;590;48.772;8.846;2022-07-22T01:08:46;18.10;73.60
254;DHT22;590;48.772;8.846;2022-07-22T01:11:16;18.00;73.40
254;DHT22;590;48.772;8.846;2022-07-22T01:13:45;18.00;74.00
254;DHT22;590;48.772;8.846;2022-07-22T01:16:15;18.00;74.00
254;DHT22;590;48.772;8.846;2022-07-22T01:18:45;17.90;74.00
254;DHT22;590;48.772;8.846;2022-07-22T01:21:15;17.90;75.10
254;DHT22;590;48.772;8.846;2022-07-22T01:23:44;17.90;75.70
254;DHT22;590;48.772;8.846;2022-07-22T01:26:13;17.80;74.90
254;DHT22;590;48.772;8.846;2022-07-22T01:28:41;17.80;75.20
254;DHT22;590;48.772;8.846;2022-07-22T01:31:09;17.80;75.20
254;DHT22;590;48.772;8.846;2022-07-22T01:33:38;17.70;75.70
254;DHT22;590;48.772;8.846;2022-07-22T01:36:07;17.70;76.00
254;DHT22;590;48.772;8.846;2022-07-22T01:38:36;17.60;75.50
254;DHT22;590;48.772;8.846;2022-07-22T01:41:04;17.60;75.60
254;DHT22;590;48.772;8.846;2022-07-22T01:43:33;17.60;76.40
254;DHT22;590;48.772;8.846;2022-07-22T01:46:01;17.50;76.20
254;DHT22;590;48.772;8.846;2022-07-22T01:48:29;17.50;76.50
254;DHT22;590;48.772;8.846;2022-07-22T01:50:57;17.50;77.20
254;DHT22;590;48.772;8.846;2022-07-22T01:53:25;17.40;77.20
254;DHT22;590;48.772;8.846;2022-07-22T01:55:55;17.50;78.30
254;DHT22;590;48.772;8.846;2022-07-22T01:58:23;17.50;79.50
254;DHT22;590;48.772;8.846;2022-07-22T02:00:51;17.60;79.00
254;DHT22;590;48.772;8.846;2022-07-22T02:03:20;17.50;77.80
254;DHT22;590;48.772;8.846;2022-07-22T02:05:48;17.60;78.10
254;DHT22;590;48.772;8.846;2022-07-22T02:08:16;17.60;78.50
254;DHT22;590;48.772;8.846;2022-07-22T02:10:44;17.50;77.60
254;DHT22;590;48.772;8.846;2022-07-22T02:13:13;17.40;76.50
254;DHT22;590;48.772;8.846;2022-07-22T02:15:41;17.30;77.20
254;DHT22;590;48.772;8.846;2022-07-22T02:18:11;17.30;78.20
254;DHT22;590;48.772;8.846;2022-07-22T02:20:39;17.30;79.10
254;DHT22;590;48.772;8.846;2022-07-22T02:23:08;17.30;78.50
254;DHT22;590;48.772;8.846;2022-07-22T02:25:38;17.20;77.10
254;DHT22;590;48.772;8.846;2022-07-22T02:28:06;17.10;77.60
254;DHT22;590;48.772;8.846;2022-07-22T02:30:35;17.00;78.90
254;DHT22;590;48.772;8.846;2022-07-22T02:33:04;17.00;81.00
254;DHT22;590;48.772;8.846;2022-07-22T02:35:32;17.00;81.70
254;DHT22;590;48.772;8.846;2022-07-22T02:38:01;16.90;82.30
254;DHT22;590;48.772;8.846;2022-07-22T02:40:29;16.90;82.60
254;DHT22;590;48.772;8.846;2022-07-22T02:42:57;16.90;83.10
254;DHT22;590;48.772;8.846;2022-07-22T02:45:25;16.90;83.30
254;DHT22;590;48.772;8.846;2022-07-22T02:47:56;16.80;84.10
254;DHT22;590;48.772;8.846;2022-07-22T02:50:24;16.90;85.10
254;DHT22;590;48.772;8.846;2022-07-22T02:52:52;16.90;84.70
254;DHT22;590;48.772;8.846;2022-07-22T02:55:20;16.90;84.40
254;DHT22;590;48.772;8.846;2022-07-22T02:57:48;16.90;84.00
254;DHT22;590;48.772;8.846;2022-07-22T03:00:17;16.90;83.70
254;DHT22;590;48.772;8.846;2022-07-22T03:02:47;16.90;83.00
254;DHT22;590;48.772;8.846;2022-07-22T03:05:16;16.90;82.70
254;DHT22;590;48.772;8.846;2022-07-22T03:07:44;16.90;82.20
254;DHT22;590;48.772;8.846;2022-07-22T03:10:12;16.90;82.40
254;DHT22;590;48.772;8.846;2022-07-22T03:12:40;16.80;82.50
254;DHT22;590;48.772;8.846;2022-07-22T03:15:09;16.80;82.60
254;DHT22;590;48.772;8.846;2022-07-22T03:17:37;16.80;83.20
254;DHT22;590;48.772;8.846;2022-07-22T03:20:07;16.90;84.30
254;DHT22;590;48.772;8.846;2022-07-22T03:22:37;16.80;82.90
254;DHT22;590;48.772;8.846;2022-07-22T03:25:05;16.70;82.40
254;DHT22;590;48.772;8.846;2022-07-22T03:27:33;16.70;82.60
254;DHT22;590;48.772;8.846;2022-07-22T03:30:02;16.70;82.10
254;DHT22;590;48.772;8.846;2022-07-22T03:32:30;16.60;81.90
254;DHT22;590;48.772;8.846;2022-07-22T03:34:58;16.60;82.30
254;DHT22;590;48.772;8.846;2022-07-22T03:37:30;16.60;82.50
254;DHT22;590;48.772;8.846;2022-07-22T03:39:59;16.60;82.60
254;DHT22;590;48.772;8.846;2022-07-22T03:42:27;16.60;83.60
254;DHT22;590;48.772;8.846;2022-07-22T03:44:56;16.70;83.20
254;DHT22;590;48.772;8.846;2022-07-22T03:47:24;16.70;83.30
254;DHT22;590;48.772;8.846;2022-07-22T03:49:52;16.80;82.70
254;DHT22;590;48.772;8.846;2022-07-22T03:52:20;16.80;82.20
254;DHT22;590;48.772;8.846;2022-07-22T03:54:48;16.70;81.80
254;DHT22;590;48.772;8.846;2022-07-22T03:57:17;16.70;81.70
254;DHT22;590;48.772;8.846;2022-07-22T03:59:46;16.70;81.30
254;DHT22;590;48.772;8.846;2022-07-22T04:02:15;16.70;81.40
254;DHT22;590;48.772;8.846;2022-07-22T04:04:43;16.70;81.40
254;DHT22;590;48.772;8.846;2022-07-22T04:07:11;16.70;81.60
254;DHT22;590;48.772;8.846;2022-07-22T04:09:39;16.60;82.10
254;DHT22;590;48.772;8.846;2022-07-22T04:12:07;16.70;82.30
254;DHT22;590;48.772;8.846;2022-07-22T04:14:36;16.70;82.20
254;DHT22;590;48.772;8.846;2022-07-22T04:17:04;16.70;82.00
254;DHT22;590;48.772;8.846;2022-07-22T04:19:37;16.80;81.30
254;DHT22;590;48.772;8.846;2022-07-22T04:22:05;16.80;80.60
254;DHT22;590;48.772;8.846;2022-07-22T04:24:33;16.80;80.60
254;DHT22;590;48.772;8.846;2022-07-22T04:27:01;16.90;79.80
254;DHT22;590;48.772;8.846;2022-07-22T04:29:29;16.90;79.10
254;DHT22;590;48.772;8.846;2022-07-22T04:31:59;17.00;79.20
254;DHT22;590;48.772;8.846;2022-07-22T04:34:29;17.00;79.50
254;DHT22;590;48.772;8.846;2022-07-22T04:36:57;17.10;79.60
254;DHT22;590;48.772;8.846;2022-07-22T04:39:25;17.40;80.40
254;DHT22;590;48.772;8.846;2022-07-22T04:41:53;18.40;78.80
254;DHT22;590;48.772;8.846;2022-07-22T04:44:21;19.80;67.90
254;DHT22;590;48.772;8.846;2022-07-22T04:46:48;21.20;54.20
254;DHT22;590;48.772;8.846;2022-07-22T04:49:18;22.60;45.00
254;DHT22;590;48.772;8.846;2022-07-22T04:51:46;23.90;36.40
254;DHT22;590;48.772;8.846;2022-07-22T04:54:14;25.20;29.40
254;DHT22;590;48.772;8.846;2022-07-22T04:56:42;26.30;24.40
254;DHT22;590;48.772;8.846;2022-07-22T04:59:10;27.30;19.40
254;DHT22;590;48.772;8.846;2022-07-22T05:01:38;28.20;16.00
254;DHT22;590;48.772;8.846;2022-07-22T05:04:06;28.80;13.50
254;DHT22;590;48.772;8.846;2022-07-22T05:06:36;29.50;11.20
254;DHT22;590;48.772;8.846;2022-07-22T05:09:04;30.20;9.30
254;DHT22;590;48.772;8.846;2022-07-22T05:11:32;30.70;8.20
254;DHT22;590;48.772;8.846;2022-07-22T05:14:00;31.20;6.70
254;DHT22;590;48.772;8.846;2022-07-22T05:16:28;31.60;6.50
254;DHT22;590;48.772;8.846;2022-07-22T05:18:56;32.10;4.80
254;DHT22;590;48.772;8.846;2022-07-22T05:21:25;32.50;4.50
254;DHT22;590;48.772;8.846;2022-07-22T05:23:54;32.80;4.00
254;DHT22;590;48.772;8.846;2022-07-22T05:26:22;32.70;3.60
254;DHT22;590;48.772;8.846;2022-07-22T05:28:52;32.20;4.30
254;DHT22;590;48.772;8.846;2022-07-22T05:31:21;31.80;5.20
254;DHT22;590;48.772;8.846;2022-07-22T05:33:49;31.40;6.00
254;DHT22;590;48.772;8.846;2022-07-22T05:36:17;31.50;5.60
254;DHT22;590;48.772;8.846;2022-07-22T05:38:45;31.50;6.00
254;DHT22;590;48.772;8.846;2022-07-22T05:41:14;31.40;5.70
254;DHT22;590;48.772;8.846;2022-07-22T05:43:42;31.00;6.70
254;DHT22;590;48.772;8.846;2022-07-22T05:46:10;30.50;8.00
254;DHT22;590;48.772;8.846;2022-07-22T05:48:39;29.90;9.00
254;DHT22;590;48.772;8.846;2022-07-22T05:51:11;29.30;9.80
254;DHT22;590;48.772;8.846;2022-07-22T05:53:40;28.80;10.70
254;DHT22;590;48.772;8.846;2022-07-22T05:56:08;28.30;12.00
254;DHT22;590;48.772;8.846;2022-07-22T05:58:39;28.00;13.80
254;DHT22;590;48.772;8.846;2022-07-22T06:01:08;27.80;13.90
254;DHT22;590;48.772;8.846;2022-07-22T06:03:36;27.80;14.60
254;DHT22;590;48.772;8.846;2022-07-22T06:06:05;27.80;15.00
254;DHT22;590;48.772;8.846;2022-07-22T06:08:35;27.80;14.50
254;DHT22;590;48.772;8.846;2022-07-22T06:11:03;27.90;14.40
254;DHT22;590;48.772;8.846;2022-07-22T06:13:31;28.00;14.70
254;DHT22;590;48.772;8.846;2022-07-22T06:16:01;28.20;14.10
254;DHT22;590;48.772;8.846;2022-07-22T06:18:29;28.50;13.40
254;DHT22;590;48.772;8.846;2022-07-22T06:20:57;28.50;13.90
254;DHT22;590;48.772;8.846;2022-07-22T06:23:25;28.70;13.20
254;DHT22;590;48.772;8.846;2022-07-22T06:25:53;29.00;12.80
254;DHT22;590;48.772;8.846;2022-07-22T06:28:21;29.10;11.90
254;DHT22;590;48.772;8.846;2022-07-22T06:30:49;29.20;11.60
254;DHT22;590;48.772;8.846;2022-07-22T06:33:18;29.40;11.60
254;DHT22;590;48.772;8.846;2022-07-22T06:35:46;29.50;11.10
254;DHT22;590;48.772;8.846;2022-07-22T06:38:14;29.70;11.30
254;DHT22;590;48.772;8.846;2022-07-22T06:40:56;29.80;11.10
254;DHT22;590;48.772;8.846;2022-07-22T06:43:26;29.90;10.70
254;DHT22;590;48.772;8.846;2022-07-22T06:45:54;30.00;9.90
254;DHT22;590;48.772;8.846;2022-07-22T06:48:24;30.20;10.00
254;DHT22;590;48.772;8.846;2022-07-22T06:50:53;30.40;9.40
254;DHT22;590;48.772;8.846;2022-07-22T06:53:21;30.60;9.00
254;DHT22;590;48.772;8.846;2022-07-22T06:55:49;30.90;8.90
254;DHT22;590;48.772;8.846;2022-07-22T06:58:17;31.20;8.20
254;DHT22;590;48.772;8.846;2022-07-22T07:00:45;31.40;8.00
254;DHT22;590;48.772;8.846;2022-07-22T07:03:13;31.70;8.10
254;DHT22;590;48.772;8.846;2022-07-22T07:06:03;31.80;6.90
254;DHT22;590;48.772;8.846;2022-07-22T07:08:31;32.10;6.80
254;DHT22;590;48.772;8.846;2022-07-22T07:11:00;32.20;6.70
254;DHT22;590;48.772;8.846;2022-07-22T07:13:28;32.30;5.60
254;DHT22;590;48.772;8.846;2022-07-22T07:15:56;32.60;5.80
254;DHT22;590;48.772;8.846;2022-07-22T07:18:24;32.90;5.60
254;DHT22;590;48.772;8.846;2022-07-22T07:20:52;33.20;4.70
254;DHT22;590;48.772;8.846;2022-07-22T07:23:22;33.40;3.80
254;DHT22;590;48.772;8.846;2022-07-22T07:25:50;33.60;4.90
254;DHT22;590;48.772;8.846;2022-07-22T07:28:19;33.70;4.60
254;DHT22;590;48.772;8.846;2022-07-22T07:30:48;33.80;4.10
254;DHT22;590;48.772;8.846;2022-07-22T07:33:16;33.90;3.50
254;DHT22;590;48.772;8.846;2022-07-22T07:35:44;34.10;3.30
254;DHT22;590;48.772;8.846;2022-07-22T07:38:12;34.30;3.20
254;DHT22;590;48.772;8.846;2022-07-22T07:40:42;34.50;2.70
254;DHT22;590;48.772;8.846;2022-07-22T07:43:10;34.70;3.10
254;DHT22;590;48.772;8.846;2022-07-22T07:45:38;34.80;2.90
254;DHT22;590;48.772;8.846;2022-07-22T07:48:06;34.80;2.80
254;DHT22;590;48.772;8.846;2022-07-22T07:50:35;34.80;2.90
254;DHT22;590;48.772;8.846;2022-07-22T07:53:03;34.90;3.00
254;DHT22;590;48.772;8.846;2022-07-22T07:55:31;34.90;1.90
254;DHT22;590;48.772;8.846;2022-07-22T07:58:04;34.90;1.20
254;DHT22;590;48.772;8.846;2022-07-22T08:00:32;34.80;1.90
254;DHT22;590;48.772;8.846;2022-07-22T08:03:01;34.60;1.00
254;DHT22;590;48.772;8.846;2022-07-22T08:05:29;34.10;1.70
254;DHT22;590;48.772;8.846;2022-07-22T08:07:58;34.20;2.20
254;DHT22;590;48.772;8.846;2022-07-22T08:10:26;34.30;1.50
254;DHT22;590;48.772;8.846;2022-07-22T08:13:15;34.10;1.70
254;DHT22;590;48.772;8.846;2022-07-22T08:15:44;33.90;2.30
254;DHT22;590;48.772;8.846;2022-07-22T08:18:13;33.90;2.80
254;DHT22;590;48.772;8.846;2022-07-22T08:20:40;34.20;3.00
254;DHT22;590;48.772;8.846;2022-07-22T08:23:09;34.20;1.90
254;DHT22;590;48.772;8.846;2022-07-22T08:25:37;34.10;2.40
254;DHT22;590;48.772;8.846;2022-07-22T08:28:05;33.90;2.30
254;DHT22;590;48.772;8.846;2022-07-22T08:30:35;33.90;3.60
254;DHT22;590;48.772;8.846;2022-07-22T08:33:03;34.10;2.40
254;DHT22;590;48.772;8.846;2022-07-22T08:35:31;34.30;3.40
254;DHT22;590;48.772;8.846;2022-07-22T08:37:59;34.70;2.80
254;DHT22;590;48.772;8.846;2022-07-22T08:40:27;35.00;2.20
254;DHT22;590;48.772;8.846;2022-07-22T08:42:56;35.00;1.00
254;DHT22;590;48.772;8.846;2022-07-22T08:45:24;34.90;1.90
254;DHT22;590;48.772;8.846;2022-07-22T08:47:54;34.90;2.00
254;DHT22;590;48.772;8.846;2022-07-22T08:50:22;35.00;2.40
254;DHT22;590;48.772;8.846;2022-07-22T08:52:51;35.10;2.50
254;DHT22;590;48.772;8.846;2022-07-22T08:55:20;35.30;1.80
254;DHT22;590;48.772;8.846;2022-07-22T08:57:50;35.50;1.40
254;DHT22;590;48.772;8.846;2022-07-22T09:00:20;35.60;1.30
254;DHT22;590;48.772;8.846;2022-07-22T09:02:48;35.70;1.30
254;DHT22;590;48.772;8.846;2022-07-22T09:05:18;35.80;1.20
254;DHT22;590;48.772;8.846;2022-07-22T09:08:06;35.90;1.10
254;DHT22;590;48.772;8.846;2022-07-22T09:10:35;35.90;1.00
254;DHT22;590;48.772;8.846;2022-07-22T09:13:06;36.00;1.00
254;DHT22;590;48.772;8.846;2022-07-22T09:15:36;35.90;1.00
254;DHT22;590;48.772;8.846;2022-07-22T09:18:07;35.90;1.00
254;DHT22;590;48.772;8.846;2022-07-22T09:20:37;35.30;1.00
254;DHT22;590;48.772;8.846;2022-07-22T09:23:10;35.20;1.00
254;DHT22;590;48.772;8.846;2022-07-22T09:25:39;35.10;1.00
254;DHT22;590;48.772;8.846;2022-07-22T09:28:16;35.00;1.00
254;DHT22;590;48.772;8.846;2022-07-22T09:30:48;34.60;1.00
254;DHT22;590;48.772;8.846;2022-07-22T09:33:18;34.50;1.90
254;DHT22;590;48.772;8.846;2022-07-22T09:35:48;34.30;1.40
254;DHT22;590;48.772;8.846;2022-07-22T09:38:26;34.30;1.90
254;DHT22;590;48.772;8.846;2022-07-22T09:40:54;34.30;1.80
254;DHT22;590;48.772;8.846;2022-07-22T09:43:22;34.60;1.00
254;DHT22;590;48.772;8.846;2022-07-22T09:45:52;34.80;1.20
254;DHT22;590;48.772;8.846;2022-07-22T09:48:22;34.50;2.20
254;DHT22;590;48.772;8.846;2022-07-22T09:50:53;34.60;2.00
254;DHT22;590;48.772;8.846;2022-07-22T09:53:24;34.80;1.00
254;DHT22;590;48.772;8.846;2022-07-22T09:55:54;34.60;1.10
254;DHT22;590;48.772;8.846;2022-07-22T09:58:24;34.40;1.30
254;DHT22;590;48.772;8.846;2022-07-22T10:00:54;33.90;1.10
254;DHT22;590;48.772;8.846;2022-07-22T10:03:26;33.70;2.00
254;DHT22;590;48.772;8.846;2022-07-22T10:05:57;33.70;1.00
254;DHT22;590;48.772;8.846;2022-07-22T10:08:26;33.70;1.40
254;DHT22;590;48.772;8.846;2022-07-22T10:10:58;33.80;1.80
254;DHT22;590;48.772;8.846;2022-07-22T10:13:27;33.80;1.90
254;DHT22;590;48.772;8.846;2022-07-22T10:15:55;33.80;2.20
254;DHT22;590;48.772;8.846;2022-07-22T10:18:24;33.50;2.00
254;DHT22;590;48.772;8.846;2022-07-22T10:21:04;33.20;1.80
254;DHT22;590;48.772;8.846;2022-07-22T10:23:32;33.00;1.70
254;DHT22;590;48.772;8.846;2022-07-22T10:26:02;33.00;1.10
254;DHT22;590;48.772;8.846;2022-07-22T10:28:32;33.00;1.80
254;DHT22;590;48.772;8.846;2022-07-22T10:31:18;33.00;1.60
254;DHT22;590;48.772;8.846;2022-07-22T10:33:48;33.10;2.50
254;DHT22;590;48.772;8.846;2022-07-22T10:36:32;33.30;2.40
254;DHT22;590;48.772;8.846;2022-07-22T10:39:07;33.40;1.00
254;DHT22;590;48.772;8.846;2022-07-22T10:41:38;33.30;1.00
254;DHT22;590;48.772;8.846;2022-07-22T10:44:06;33.00;1.00
254;DHT22;590;48.772;8.846;2022-07-22T10:46:48;32.90;1.50
254;DHT22;590;48.772;8.846;2022-07-22T10:49:18;32.90;1.60
254;DHT22;590;48.772;8.846;2022-07-22T10:52:10;32.80;1.90
254;DHT22;590;48.772;8.846;2022-07-22T10:55:18;32.40;1.50
254;DHT22;590;48.772;8.846;2022-07-22T10:57:47;32.20;2.80
254;DHT22;590;48.772;8.846;2022-07-22T11:00:16;32.20;3.00
254;DHT22;590;48.772;8.846;2022-07-22T11:02:45;32.10;2.30
254;DHT22;590;48.772;8.846;2022-07-22T11:05:14;32.10;2.40
254;DHT22;590;48.772;8.846;2022-07-22T11:07:45;32.30;2.70
254;DHT22;590;48.772;8.846;2022-07-22T11:10:14;32.40;2.20
254;DHT22;590;48.772;8.846;2022-07-22T11:12:47;32.30;1.70
254;DHT22;590;48.772;8.846;2022-07-22T11:15:17;32.10;2.20
254;DHT22;590;48.772;8.846;2022-07-22T11:17:45;32.00;2.80
254;DHT22;590;48.772;8.846;2022-07-22T11:20:13;32.10;2.00
254;DHT22;590;48.772;8.846;2022-07-22T11:22:46;32.20;2.10
254;DHT22;590;48.772;8.846;2022-07-22T11:25:15;32.10;1.10
254;DHT22;590;48.772;8.846;2022-07-22T11:27:50;31.90;1.30
254;DHT22;590;48.772;8.846;2022-07-22T11:30:19;32.00;2.40
254;DHT22;590;48.772;8.846;2022-07-22T11:32:48;32.10;2.70
254;DHT22;590;48.772;8.846;2022-07-22T11:35:16;32.40;2.70
254;DHT22;590;48.772;8.846;2022-07-22T11:37:55;32.70;1.80
254;DHT22;590;48.772;8.846;2022-07-22T11:40:23;33.00;1.70
254;DHT22;590;48.772;8.846;2022-07-22T11:43:00;33.00;1.40
254;DHT22;590;48.772;8.846;2022-07-22T11:45:28;33.10;1.80
254;DHT22;590;48.772;8.846;2022-07-22T11:47:56;33.10;1.00
254;DHT22;590;48.772;8.846;2022-07-22T11:50:31;32.90;1.00
254;DHT22;590;48.772;8.846;2022-07-22T11:53:03;32.70;1.00
254;DHT22;590;48.772;8.846;2022-07-22T11:55:34;32.60;1.50
254;DHT22;590;48.772;8.846;2022-07-22T11:58:02;32.70;1.50
254;DHT22;590;48.772;8.846;2022-07-22T12:00:30;32.70;1.00
254;DHT22;590;48.772;8.846;2022-07-22T12:02:58;32.60;1.40
254;DHT22;590;48.772;8.846;2022-07-22T12:05:27;32.80;1.50
254;DHT22;590;48.772;8.846;2022-07-22T12:07:59;33.00;1.00
254;DHT22;590;48.772;8.846;2022-07-22T12:10:29;33.10;1.10
254;DHT22;590;48.772;8.846;2022-07-22T12:12:58;33.20;1.40
254;DHT22;590;48.772;8.846;2022-07-22T12:15:29;33.40;1.00
254;DHT22;590;48.772;8.846;2022-07-22T12:18:16;33.60;1.00
254;DHT22;590;48.772;8.846;2022-07-22T12:20:45;33.50;1.00
254;DHT22;590;48.772;8.846;2022-07-22T12:23:20;33.50;1.00
254;DHT22;590;48.772;8.846;2022-07-22T12:25:52;33.40;1.00
254;DHT22;590;48.772;8.846;2022-07-22T12:28:20;33.10;1.00
254;DHT22;590;48.772;8.846;2022-07-22T12:30:49;32.80;1.00
254;DHT22;590;48.772;8.846;2022-07-22T12:33:18;32.70;1.00
254;DHT22;590;48.772;8.846;2022-07-22T12:35:59;32.80;1.30
254;DHT22;590;48.772;8.846;2022-07-22T12:38:27;32.70;1.50
254;DHT22;590;48.772;8.846;2022-07-22T12:41:24;32.70;1.00
254;DHT22;590;48.772;8.846;2022-07-22T12:43:52;32.50;1.40
254;DHT22;590;48.772;8.846;2022-07-22T12:46:21;32.50;1.30
254;DHT22;590;48.772;8.846;2022-07-22T12:49:06;32.60;1.40
254;DHT22;590;48.772;8.846;2022-07-22T12:52:08;32.60;1.00
254;DHT22;590;48.772;8.846;2022-07-22T12:54:37;32.50;1.00
254;DHT22;590;48.772;8.846;2022-07-22T12:57:08;32.30;1.20
254;DHT22;590;48.772;8.846;2022-07-22T12:59:37;32.30;1.20
254;DHT22;590;48.772;8.846;2022-07-22T13:02:05;32.40;1.30
254;DHT22;590;48.772;8.846;2022-07-22T13:04:33;32.40;1.90
254;DHT22;590;48.772;8.846;2022-07-22T13:07:01;32.40;1.60
254;DHT22;590;48.772;8.846;2022-07-22T13:09:31;32.50;2.00
254;DHT22;590;48.772;8.846;2022-07-22T13:12:02;32.70;1.80
254;DHT22;590;48.772;8.846;2022-07-22T13:14:31;32.80;1.60
254;DHT22;590;48.772;8.846;2022-07-22T13:17:01;32.80;1.50
254;DHT22;590;48.772;8.846;2022-07-22T13:19:29;33.00;1.00
254;DHT22;590;48.772;8.846;2022-07-22T13:21:57;33.00;1.90
254;DHT22;590;48.772;8.846;2022-07-22T13:24:25;33.10;1.20
254;DHT22;590;48.772;8.846;2022-07-22T13:26:53;33.20;1.00
254;DHT22;590;48.772;8.846;2022-07-22T13:29:21;33.10;1.00
254;DHT22;590;48.772;8.846;2022-07-22T13:31:50;33.10;1.00
254;DHT22;590;48.772;8.846;2022-07-22T13:34:44;33.20;1.50
254;DHT22;590;48.772;8.846;2022-07-22T13:37:14;33.20;1.00
254;DHT22;590;48.772;8.846;2022-07-22T13:39:42;33.30;1.00
254;DHT22;590;48.772;8.846;2022-07-22T13:42:12;33.20;1.00
254;DHT22;590;48.772;8.846;2022-07-22T13:44:56;33.30;1.00
254;DHT22;590;48.772;8.846;2022-07-22T13:47:26;33.40;1.00
254;DHT22;590;48.772;8.846;2022-07-22T13:49:54;33.50;1.20
254;DHT22;590;48.772;8.846;2022-07-22T13:52:23;33.60;1.00
254;DHT22;590;48.772;8.846;2022-07-22T13:54:51;33.50;1.00
254;DHT22;590;48.772;8.846;2022-07-22T13:57:19;33.40;1.00
254;DHT22;590;48.772;8.846;2022-07-22T13:59:47;33.30;1.00
254;DHT22;590;48.772;8.846;2022-07-22T14:02:16;33.10;1.00
254;DHT22;590;48.772;8.846;2022-07-22T14:04:46;33.00;1.00
254;DHT22;590;48.772;8.846;2022-07-22T14:07:14;32.80;1.00
254;DHT22;590;48.772;8.846;2022-07-22T14:09:42;32.80;1.00
254;DHT22;590;48.772;8.846;2022-07-22T14:12:10;32.80;1.00
254;DHT22;590;48.772;8.846;2022-07-22T14:14:38;32.80;1.20
254;DHT22;590;48.772;8.846;2022-07-22T14:17:06;32.80;1.00
254;DHT22;590;48.772;8.846;2022-07-22T14:19:35;32.90;1.00
254;DHT22;590;48.772;8.846;2022-07-22T14:22:05;33.00;1.00
254;DHT22;590;48.772;8.846;2022-07-22T14:24:33;33.10;1.00
254;DHT22;590;48.772;8.846;2022-07-22T14:27:09;33.20;1.00
254;DHT22;590;48.772;8.846;2022-07-22T14:29:46;33.30;1.00
254;DHT22;590;48.772;8.846;2022-07-22T14:32:17;33.30;1.00
254;DHT22;590;48.772;8.846;2022-07-22T14:34:46;33.30;1.00
254;DHT22;590;48.772;8.846;2022-07-22T14:37:17;33.20;1.00
254;DHT22;590;48.772;8.846;2022-07-22T14:39:58;33.00;1.00
254;DHT22;590;48.772;8.846;2022-07-22T14:42:27;32.70;1.00
254;DHT22;590;48.772;8.846;2022-07-22T14:45:02;32.70;1.00
254;DHT22;590;48.772;8.846;2022-07-22T14:47:35;32.70;1.00
254;DHT22;590;48.772;8.846;2022-07-22T14:50:05;32.70;1.40
254;DHT22;590;48.772;8.846;2022-07-22T14:52:34;32.80;1.00
254;DHT22;590;48.772;8.846;2022-07-22T14:55:03;32.60;1.10
254;DHT22;590;48.772;8.846;2022-07-22T14:57:33;32.50;1.00
254;DHT22;590;48.772;8.846;2022-07-22T15:00:08;32.40;1.00
254;DHT22;590;48.772;8.846;2022-07-22T15:02:41;32.30;1.40
254;DHT22;590;48.772;8.846;2022-07-22T15:05:12;32.30;1.20
254;DHT22;590;48.772;8.846;2022-07-22T15:07:42;32.30;1.20
254;DHT22;590;48.772;8.846;2022-07-22T15:10:11;32.20;1.00
254;DHT22;590;48.772;8.846;2022-07-22T15:12:39;32.10;1.10
254;DHT22;590;48.772;8.846;2022-07-22T15:15:15;32.10;1.50
254;DHT22;590;48.772;8.846;2022-07-22T15:17:43;32.00;1.00
254;DHT22;590;48.772;8.846;2022-07-22T15:20:14;32.00;1.40
254;DHT22;590;48.772;8.846;2022-07-22T15:22:43;32.10;1.40
254;DHT22;590;48.772;8.846;2022-07-22T15:25:12;32.20;1.60
254;DHT22;590;48.772;8.846;2022-07-22T15:27:40;32.20;1.10
254;DHT22;590;48.772;8.846;2022-07-22T15:30:09;32.20;1.10
254;DHT22;590;48.772;8.846;2022-07-22T15:32:38;32.20;1.40
254;DHT22;590;48.772;8.846;2022-07-22T15:35:07;32.20;1.00
254;DHT22;590;48.772;8.846;2022-07-22T15:37:35;32.20;1.00
254;DHT22;590;48.772;8.846;2022-07-22T15:40:15;32.10;1.40
254;DHT22;590;48.772;8.846;2022-07-22T15:42:44;32.10;1.10
254;DHT22;590;48.772;8.846;2022-07-22T15:45:12;32.00;1.00
254;DHT22;590;48.772;8.846;2022-07-22T15:47:40;31.90;1.20
254;DHT22;590;48.772;8.846;2022-07-22T15:50:09;31.90;1.30
254;DHT22;590;48.772;8.846;2022-07-22T15:52:37;31.80;1.00
254;DHT22;590;48.772;8.846;2022-07-22T15:55:07;31.80;1.70
254;DHT22;590;48.772;8.846;2022-07-22T15:57:36;31.80;2.40
254;DHT22;590;48.772;8.846;2022-07-22T16:00:22;31.80;2.80
254;DHT22;590;48.772;8.846;2022-07-22T16:02:50;31.90;1.80
254;DHT22;590;48.772;8.846;2022-07-22T16:05:18;31.90;2.00
254;DHT22;590;48.772;8.846;2022-07-22T16:07:46;32.00;2.70
254;DHT22;590;48.772;8.846;2022-07-22T16:10:14;32.00;1.50
254;DHT22;590;48.772;8.846;2022-07-22T16:12:43;32.00;1.60
254;DHT22;590;48.772;8.846;2022-07-22T16:15:14;32.10;1.50
254;DHT22;590;48.772;8.846;2022-07-22T16:17:42;32.00;1.00
254;DHT22;590;48.772;8.846;2022-07-22T16:20:11;32.00;1.40
254;DHT22;590;48.772;8.846;2022-07-22T16:22:40;32.10;1.70
254;DHT22;590;48.772;8.846;2022-07-22T16:25:09;32.20;1.70
254;DHT22;590;48.772;8.846;2022-07-22T16:27:36;32.30;2.70
254;DHT22;590;48.772;8.846;2022-07-22T16:30:09;32.30;3.40
254;DHT22;590;48.772;8.846;2022-07-22T16:32:41;32.40;3.10
254;DHT22;590;48.772;8.846;2022-07-22T16:35:15;32.20;3.70
254;DHT22;590;48.772;8.846;2022-07-22T16:37:43;32.20;3.80
254;DHT22;590;48.772;8.846;2022-07-22T16:40:13;32.10;4.00
254;DHT22;590;48.772;8.846;2022-07-22T16:42:41;32.00;4.00
254;DHT22;590;48.772;8.846;2022-07-22T16:45:16;31.80;3.90
254;DHT22;590;48.772;8.846;2022-07-22T16:47:53;31.70;4.00
254;DHT22;590;48.772;8.846;2022-07-22T16:50:21;31.50;4.50
254;DHT22;590;48.772;8.846;2022-07-22T16:52:50;31.40;4.50
254;DHT22;590;48.772;8.846;2022-07-22T16:55:19;31.30;4.70
254;DHT22;590;48.772;8.846;2022-07-22T16:57:47;31.20;4.60
254;DHT22;590;48.772;8.846;2022-07-22T17:00:16;31.20;5.40
254;DHT22;590;48.772;8.846;2022-07-22T17:02:44;31.00;5.00
254;DHT22;590;48.772;8.846;2022-07-22T17:05:13;31.00;5.50